sensor_id;sensor_type;location;lat;lon;timestamp;pressure;altitude;pressure_sealevel;temperature;humidity
76808;BME280;65758;45.458;11.062;2023-07-22T00:00:48;100492.67;;;22.05;69.37
76808;BME280;65758;45.458;11.062;2023-07-22T00:03:15;100485.56;;;21.95;69.36
76808;BME280;65758;45.458;11.062;2023-07-22T00:05:42;100481.42;;;21.83;69.17
76808;BME280;65758;45.458;11.062;2023-07-22T00:08:10;100480.43;;;21.73;69.19
76808;BME280;65758;45.458;11.062;2023-07-22T00:10:41;100482.40;;;21.69;69.17
76808;BME280;65758;45.458;11.062;2023-07-22T00:13:08;100481.85;;;21.66;69.05
76808;BME280;65758;45.458;11.062;2023-07-22T00:15:35;100489.05;;;21.63;69.07
76808;BME280;65758;45.458;11.062;2023-07-22T00:18:02;100492.61;;;21.60;69.13
76808;BME280;65758;45.458;11.062;2023-07-22T00:20:29;100485.45;;;21.55;69.20
76808;BME280;65758;45.458;11.062;2023-07-22T00:22:56;100479.02;;;21.47;69.31
76808;BME280;65758;45.458;11.062;2023-07-22T00:25:23;100474.52;;;21.40;69.61
76808;BME280;65758;45.458;11.062;2023-07-22T00:27:50;100467.55;;;21.37;69.90
76808;BME280;65758;45.458;11.062;2023-07-22T00:30:17;100471.17;;;21.41;69.74
76808;BME280;65758;45.458;11.062;2023-07-22T00:32:44;100475.79;;;21.44;69.71
76808;BME280;65758;45.458;11.062;2023-07-22T00:35:11;100475.05;;;21.47;69.66
76808;BME280;65758;45.458;11.062;2023-07-22T00:37:38;100475.55;;;21.51;69.45
76808;BME280;65758;45.458;11.062;2023-07-22T00:40:05;100471.77;;;21.48;69.32
76808;BME280;65758;45.458;11.062;2023-07-22T00:42:38;100475.81;;;21.43;69.37
76808;BME280;65758;45.458;11.062;2023-07-22T00:45:06;100473.31;;;21.36;69.39
76808;BME280;65758;45.458;11.062;2023-07-22T00:47:34;100471.01;;;21.31;69.41
76808;BME280;65758;45.458;11.062;2023-07-22T00:50:02;100472.10;;;21.32;69.53
76808;BME280;65758;45.458;11.062;2023-07-22T00:52:30;100466.59;;;21.31;69.57
76808;BME280;65758;45.458;11.062;2023-07-22T00:54:57;100462.95;;;21.33;69.63
76808;BME280;65758;45.458;11.062;2023-07-22T00:57:27;100457.28;;;21.32;69.35
76808;BME280;65758;45.458;11.062;2023-07-22T00:59:54;100451.11;;;21.25;69.36
76808;BME280;65758;45.458;11.062;2023-07-22T01:02:22;100449.55;;;21.20;69.30
76808;BME280;65758;45.458;11.062;2023-07-22T01:04:51;100449.58;;;21.14;69.38
76808;BME280;65758;45.458;11.062;2023-07-22T01:07:19;100453.80;;;21.10;69.46
76808;BME280;65758;45.458;11.062;2023-07-22T01:09:46;100451.91;;;21.11;69.40
76808;BME280;65758;45.458;11.062;2023-07-22T01:12:13;100454.46;;;21.11;69.39
76808;BME280;65758;45.458;11.062;2023-07-22T01:14:41;100452.58;;;21.10;69.39
76808;BME280;65758;45.458;11.062;2023-07-22T01:17:10;100454.16;;;21.08;69.55
76808;BME280;65758;45.458;11.062;2023-07-22T01:19:38;100458.57;;;21.04;69.47
76808;BME280;65758;45.458;11.062;2023-07-22T01:22:06;100458.91;;;21.00;69.58
76808;BME280;65758;45.458;11.062;2023-07-22T01:24:38;100462.05;;;21.02;69.55
76808;BME280;65758;45.458;11.062;2023-07-22T01:27:07;100463.15;;;21.03;69.55
76808;BME280;65758;45.458;11.062;2023-07-22T01:29:36;100469.58;;;20.98;69.58
76808;BME280;65758;45.458;11.062;2023-07-22T01:32:04;100469.16;;;20.92;69.62
76808;BME280;65758;45.458;11.062;2023-07-22T01:34:31;100473.13;;;20.91;69.89
76808;BME280;65758;45.458;11.062;2023-07-22T01:36:59;100477.56;;;20.95;69.96
76808;BME280;65758;45.458;11.062;2023-07-22T01:39:26;100482.16;;;21.04;69.91
76808;BME280;65758;45.458;11.062;2023-07-22T01:41:54;100484.70;;;21.09;69.76
76808;BME280;65758;45.458;11.062;2023-07-22T01:44:21;100484.69;;;21.12;70.07
76808;BME280;65758;45.458;11.062;2023-07-22T01:46:48;100489.04;;;21.18;70.86
76808;BME280;65758;45.458;11.062;2023-07-22T01:49:14;100493.64;;;21.22;71.38
76808;BME280;65758;45.458;11.062;2023-07-22T01:51:41;100494.70;;;21.24;71.26
76808;BME280;65758;45.458;11.062;2023-07-22T01:54:08;100498.61;;;21.28;71.50
76808;BME280;65758;45.458;11.062;2023-07-22T01:56:36;100501.91;;;21.31;71.49
76808;BME280;65758;45.458;11.062;2023-07-22T01:59:03;100501.02;;;21.33;71.45
76808;BME280;65758;45.458;11.062;2023-07-22T02:01:32;100503.52;;;21.37;71.42
76808;BME280;65758;45.458;11.062;2023-07-22T02:04:00;100505.52;;;21.40;71.42
76808;BME280;65758;45.458;11.062;2023-07-22T02:06:27;100509.76;;;21.44;71.58
76808;BME280;65758;45.458;11.062;2023-07-22T02:08:56;100513.04;;;21.47;71.69
76808;BME280;65758;45.458;11.062;2023-07-22T02:11:23;100510.85;;;21.49;71.38
76808;BME280;65758;45.458;11.062;2023-07-22T02:13:50;100511.73;;;21.50;71.47
76808;BME280;65758;45.458;11.062;2023-07-22T02:16:17;100513.04;;;21.51;71.48
76808;BME280;65758;45.458;11.062;2023-07-22T02:18:45;100514.31;;;21.51;71.48
76808;BME280;65758;45.458;11.062;2023-07-22T02:21:12;100516.64;;;21.51;71.53
76808;BME280;65758;45.458;11.062;2023-07-22T02:23:40;100521.95;;;21.50;71.42
76808;BME280;65758;45.458;11.062;2023-07-22T02:26:07;100526.64;;;21.50;71.32
76808;BME280;65758;45.458;11.062;2023-07-22T02:28:34;100533.91;;;21.51;71.01
76808;BME280;65758;45.458;11.062;2023-07-22T02:31:02;100541.35;;;21.50;70.88
76808;BME280;65758;45.458;11.062;2023-07-22T02:33:34;100546.94;;;21.48;70.83
76808;BME280;65758;45.458;11.062;2023-07-22T02:36:01;100554.69;;;21.47;70.74
76808;BME280;65758;45.458;11.062;2023-07-22T02:38:28;100560.02;;;21.46;70.61
76808;BME280;65758;45.458;11.062;2023-07-22T02:41:02;100563.22;;;21.43;70.61
76808;BME280;65758;45.458;11.062;2023-07-22T02:43:30;100565.84;;;21.41;70.80
76808;BME280;65758;45.458;11.062;2023-07-22T02:45:56;100568.16;;;21.37;70.71
76808;BME280;65758;45.458;11.062;2023-07-22T02:48:24;100569.64;;;21.32;70.78
76808;BME280;65758;45.458;11.062;2023-07-22T02:50:51;100572.30;;;21.25;70.79
76808;BME280;65758;45.458;11.062;2023-07-22T02:53:17;100575.44;;;21.20;70.97
76808;BME280;65758;45.458;11.062;2023-07-22T02:55:45;100572.38;;;21.20;70.75
76808;BME280;65758;45.458;11.062;2023-07-22T02:58:13;100572.33;;;21.20;70.61
76808;BME280;65758;45.458;11.062;2023-07-22T03:00:39;100571.24;;;21.22;70.56
76808;BME280;65758;45.458;11.062;2023-07-22T03:03:06;100576.89;;;21.24;70.42
76808;BME280;65758;45.458;11.062;2023-07-22T03:05:34;100580.77;;;21.24;70.45
76808;BME280;65758;45.458;11.062;2023-07-22T03:08:01;100583.93;;;21.25;70.47
76808;BME280;65758;45.458;11.062;2023-07-22T03:10:29;100585.49;;;21.25;70.43
76808;BME280;65758;45.458;11.062;2023-07-22T03:12:56;100587.74;;;21.24;70.29
76808;BME280;65758;45.458;11.062;2023-07-22T03:15:23;100599.86;;;21.23;70.42
76808;BME280;65758;45.458;11.062;2023-07-22T03:17:53;100606.81;;;21.21;70.49
76808;BME280;65758;45.458;11.062;2023-07-22T03:20:21;100613.56;;;21.21;70.45
76808;BME280;65758;45.458;11.062;2023-07-22T03:22:49;100616.66;;;21.22;70.61
76808;BME280;65758;45.458;11.062;2023-07-22T03:25:16;100625.58;;;21.22;70.42
76808;BME280;65758;45.458;11.062;2023-07-22T03:27:44;100625.09;;;21.21;70.32
76808;BME280;65758;45.458;11.062;2023-07-22T03:30:15;100627.98;;;21.18;70.44
76808;BME280;65758;45.458;11.062;2023-07-22T03:32:44;100629.26;;;21.18;70.70
76808;BME280;65758;45.458;11.062;2023-07-22T03:35:11;100635.89;;;21.20;70.74
76808;BME280;65758;45.458;11.062;2023-07-22T03:37:39;100637.89;;;21.21;70.75
76808;BME280;65758;45.458;11.062;2023-07-22T03:40:07;100633.70;;;21.22;70.64
76808;BME280;65758;45.458;11.062;2023-07-22T03:42:40;100632.71;;;21.24;70.73
76808;BME280;65758;45.458;11.062;2023-07-22T03:45:08;100633.94;;;21.25;70.67
76808;BME280;65758;45.458;11.062;2023-07-22T03:47:38;100634.09;;;21.26;71.12
76808;BME280;65758;45.458;11.062;2023-07-22T03:50:06;100629.33;;;21.28;71.10
76808;BME280;65758;45.458;11.062;2023-07-22T03:52:33;100633.05;;;21.28;71.08
76808;BME280;65758;45.458;11.062;2023-07-22T03:55:00;100633.88;;;21.30;71.02
76808;BME280;65758;45.458;11.062;2023-07-22T03:57:27;100639.40;;;21.32;71.17
76808;BME280;65758;45.458;11.062;2023-07-22T03:59:55;100637.40;;;21.35;71.22
76808;BME280;65758;45.458;11.062;2023-07-22T04:02:22;100629.48;;;21.39;70.98
76808;BME280;65758;45.458;11.062;2023-07-22T04:04:51;100629.66;;;21.39;70.71
76808;BME280;65758;45.458;11.062;2023-07-22T04:07:18;100628.20;;;21.37;70.53
76808;BME280;65758;45.458;11.062;2023-07-22T04:09:45;100638.70;;;21.35;70.28
76808;BME280;65758;45.458;11.062;2023-07-22T04:12:12;100645.80;;;21.32;70.37
76808;BME280;65758;45.458;11.062;2023-07-22T04:14:39;100641.02;;;21.31;70.31
76808;BME280;65758;45.458;11.062;2023-07-22T04:17:07;100640.98;;;21.30;70.24
76808;BME280;65758;45.458;11.062;2023-07-22T04:19:34;100641.86;;;21.24;70.31
76808;BME280;65758;45.458;11.062;2023-07-22T04:22:02;100645.16;;;21.23;70.30
76808;BME280;65758;45.458;11.062;2023-07-22T04:24:31;100646.47;;;21.20;70.25
76808;BME280;65758;45.458;11.062;2023-07-22T04:26:59;100650.92;;;21.20;70.37
76808;BME280;65758;45.458;11.062;2023-07-22T04:29:26;100651.64;;;21.21;70.21
76808;BME280;65758;45.458;11.062;2023-07-22T04:32:01;100652.36;;;21.21;70.19
76808;BME280;65758;45.458;11.062;2023-07-22T04:34:30;100658.89;;;21.20;70.08
76808;BME280;65758;45.458;11.062;2023-07-22T04:36:57;100662.75;;;21.19;70.08
76808;BME280;65758;45.458;11.062;2023-07-22T04:39:24;100662.68;;;21.23;70.04
76808;BME280;65758;45.458;11.062;2023-07-22T04:41:51;100668.06;;;21.29;69.88
76808;BME280;65758;45.458;11.062;2023-07-22T04:44:19;100662.83;;;21.33;69.69
76808;BME280;65758;45.458;11.062;2023-07-22T04:46:46;100669.00;;;21.37;69.60
76808;BME280;65758;45.458;11.062;2023-07-22T04:49:13;100667.89;;;21.40;69.53
76808;BME280;65758;45.458;11.062;2023-07-22T04:51:46;100672.02;;;21.44;69.31
76808;BME280;65758;45.458;11.062;2023-07-22T04:54:14;100679.54;;;21.49;69.32
76808;BME280;65758;45.458;11.062;2023-07-22T04:56:42;100680.02;;;21.54;69.29
76808;BME280;65758;45.458;11.062;2023-07-22T04:59:09;100685.45;;;21.58;69.37
76808;BME280;65758;45.458;11.062;2023-07-22T05:01:37;100684.53;;;21.61;69.45
76808;BME280;65758;45.458;11.062;2023-07-22T05:04:04;100686.98;;;21.64;69.36
76808;BME280;65758;45.458;11.062;2023-07-22T05:06:32;100687.10;;;21.67;69.50
76808;BME280;65758;45.458;11.062;2023-07-22T05:08:59;100687.92;;;21.72;69.41
76808;BME280;65758;45.458;11.062;2023-07-22T05:11:26;100695.40;;;21.78;69.27
76808;BME280;65758;45.458;11.062;2023-07-22T05:13:53;100696.77;;;21.83;69.11
76808;BME280;65758;45.458;11.062;2023-07-22T05:16:20;100696.39;;;21.86;68.81
76808;BME280;65758;45.458;11.062;2023-07-22T05:18:48;100694.50;;;21.85;68.86
76808;BME280;65758;45.458;11.062;2023-07-22T05:21:15;100698.66;;;21.87;69.05
76808;BME280;65758;45.458;11.062;2023-07-22T05:23:42;100702.02;;;21.91;69.04
76808;BME280;65758;45.458;11.062;2023-07-22T05:26:09;100699.23;;;21.98;69.09
76808;BME280;65758;45.458;11.062;2023-07-22T05:28:36;100700.67;;;22.06;69.00
76808;BME280;65758;45.458;11.062;2023-07-22T05:31:03;100700.08;;;22.15;69.11
76808;BME280;65758;45.458;11.062;2023-07-22T05:33:30;100694.52;;;22.20;68.83
76808;BME280;65758;45.458;11.062;2023-07-22T05:35:57;100697.20;;;22.26;68.54
76808;BME280;65758;45.458;11.062;2023-07-22T05:38:24;100693.15;;;22.28;68.47
76808;BME280;65758;45.458;11.062;2023-07-22T05:40:52;100699.11;;;22.35;68.34
76808;BME280;65758;45.458;11.062;2023-07-22T05:43:21;100699.50;;;22.44;68.41
76808;BME280;65758;45.458;11.062;2023-07-22T05:45:47;100702.31;;;22.52;68.41
76808;BME280;65758;45.458;11.062;2023-07-22T05:48:15;100699.48;;;22.61;68.29
76808;BME280;65758;45.458;11.062;2023-07-22T05:50:42;100698.34;;;22.72;68.25
76808;BME280;65758;45.458;11.062;2023-07-22T05:53:09;100699.59;;;22.79;67.87
76808;BME280;65758;45.458;11.062;2023-07-22T05:55:35;100702.94;;;22.85;67.67
76808;BME280;65758;45.458;11.062;2023-07-22T05:58:03;100708.02;;;22.90;67.47
76808;BME280;65758;45.458;11.062;2023-07-22T06:00:33;100716.27;;;22.93;67.35
76808;BME280;65758;45.458;11.062;2023-07-22T06:03:00;100717.14;;;22.97;67.28
76808;BME280;65758;45.458;11.062;2023-07-22T06:05:27;100710.91;;;23.00;67.25
76808;BME280;65758;45.458;11.062;2023-07-22T06:07:55;100709.48;;;23.04;67.18
76808;BME280;65758;45.458;11.062;2023-07-22T06:10:24;100711.17;;;23.11;67.35
76808;BME280;65758;45.458;11.062;2023-07-22T06:12:51;100711.89;;;23.19;67.09
76808;BME280;65758;45.458;11.062;2023-07-22T06:15:19;100713.91;;;23.27;66.75
76808;BME280;65758;45.458;11.062;2023-07-22T06:17:46;100710.48;;;23.35;66.75
76808;BME280;65758;45.458;11.062;2023-07-22T06:20:13;100713.38;;;23.45;66.51
76808;BME280;65758;45.458;11.062;2023-07-22T06:22:40;100716.59;;;23.55;66.32
76808;BME280;65758;45.458;11.062;2023-07-22T06:25:07;100719.20;;;23.66;66.09
76808;BME280;65758;45.458;11.062;2023-07-22T06:27:34;100719.17;;;23.74;66.04
76808;BME280;65758;45.458;11.062;2023-07-22T06:30:05;100720.48;;;23.83;66.05
76808;BME280;65758;45.458;11.062;2023-07-22T06:32:32;100716.61;;;23.93;65.93
76808;BME280;65758;45.458;11.062;2023-07-22T06:34:59;100717.13;;;24.08;66.02
76808;BME280;65758;45.458;11.062;2023-07-22T06:37:26;100716.77;;;24.28;65.99
76808;BME280;65758;45.458;11.062;2023-07-22T06:39:53;100724.79;;;24.47;66.31
76808;BME280;65758;45.458;11.062;2023-07-22T06:42:20;100728.04;;;24.76;66.32
76808;BME280;65758;45.458;11.062;2023-07-22T06:44:47;100726.67;;;25.09;66.22
76808;BME280;65758;45.458;11.062;2023-07-22T06:47:14;100724.94;;;25.42;65.62
76808;BME280;65758;45.458;11.062;2023-07-22T06:49:41;100720.36;;;25.76;65.09
76808;BME280;65758;45.458;11.062;2023-07-22T06:52:13;100720.27;;;26.13;64.79
76808;BME280;65758;45.458;11.062;2023-07-22T06:54:39;100718.38;;;26.45;63.99
76808;BME280;65758;45.458;11.062;2023-07-22T06:57:07;100722.38;;;26.67;63.50
76808;BME280;65758;45.458;11.062;2023-07-22T06:59:34;100726.63;;;26.85;62.91
76808;BME280;65758;45.458;11.062;2023-07-22T07:02:02;100729.62;;;26.92;62.33
76808;BME280;65758;45.458;11.062;2023-07-22T07:04:29;100725.88;;;26.97;62.29
76808;BME280;65758;45.458;11.062;2023-07-22T07:06:56;100733.79;;;26.98;62.04
76808;BME280;65758;45.458;11.062;2023-07-22T07:09:23;100735.16;;;26.96;62.26
76808;BME280;65758;45.458;11.062;2023-07-22T07:11:51;100738.20;;;26.94;62.56
76808;BME280;65758;45.458;11.062;2023-07-22T07:14:18;100743.02;;;26.96;62.56
76808;BME280;65758;45.458;11.062;2023-07-22T07:16:45;100744.52;;;27.00;62.20
76808;BME280;65758;45.458;11.062;2023-07-22T07:19:12;100744.17;;;27.06;61.80
76808;BME280;65758;45.458;11.062;2023-07-22T07:21:39;100741.14;;;27.12;61.25
76808;BME280;65758;45.458;11.062;2023-07-22T07:24:06;100741.46;;;27.20;60.74
76808;BME280;65758;45.458;11.062;2023-07-22T07:26:33;100746.02;;;27.39;59.76
76808;BME280;65758;45.458;11.062;2023-07-22T07:29:00;100751.47;;;27.68;59.56
76808;BME280;65758;45.458;11.062;2023-07-22T07:31:27;100744.80;;;27.88;58.36
76808;BME280;65758;45.458;11.062;2023-07-22T07:33:57;100743.71;;;27.95;57.87
76808;BME280;65758;45.458;11.062;2023-07-22T07:36:24;100749.44;;;27.97;57.46
76808;BME280;65758;45.458;11.062;2023-07-22T07:38:51;100751.42;;;27.99;57.39
76808;BME280;65758;45.458;11.062;2023-07-22T07:41:18;100755.77;;;28.01;57.09
76808;BME280;65758;45.458;11.062;2023-07-22T07:43:45;100754.16;;;28.04;57.25
76808;BME280;65758;45.458;11.062;2023-07-22T07:48:52;100763.36;;;28.14;56.71
76808;BME280;65758;45.458;11.062;2023-07-22T07:51:19;100766.04;;;28.21;55.89
76808;BME280;65758;45.458;11.062;2023-07-22T07:53:46;100766.89;;;28.26;55.18
76808;BME280;65758;45.458;11.062;2023-07-22T07:56:14;100765.69;;;28.24;55.23
76808;BME280;65758;45.458;11.062;2023-07-22T07:58:42;100766.29;;;28.23;55.09
76808;BME280;65758;45.458;11.062;2023-07-22T08:01:09;100766.13;;;28.21;54.80
76808;BME280;65758;45.458;11.062;2023-07-22T08:03:40;100766.14;;;28.22;54.71
76808;BME280;65758;45.458;11.062;2023-07-22T08:06:09;100766.18;;;28.20;54.62
76808;BME280;65758;45.458;11.062;2023-07-22T08:08:37;100763.05;;;28.21;54.37
